sensor_id;sensor_type;location;lat;lon;timestamp;pressure;altitude;pressure_sealevel;temperature;humidity
79703;BME280;69172;52.352;5.006;2023-08-21T00:01:56;102359.84;;;18.18;78.01
79703;BME280;69172;52.352;5.006;2023-08-21T00:04:21;102362.44;;;18.18;78.60
79703;BME280;69172;52.352;5.006;2023-08-21T00:06:47;102361.72;;;18.21;78.21
79703;BME280;69172;52.352;5.006;2023-08-21T00:09:12;102357.50;;;18.23;78.04
79703;BME280;69172;52.352;5.006;2023-08-21T00:11:37;102360.91;;;18.22;77.58
79703;BME280;69172;52.352;5.006;2023-08-21T00:14:03;102366.53;;;18.13;78.48
79703;BME280;69172;52.352;5.006;2023-08-21T00:16:29;102354.84;;;18.05;78.61
79703;BME280;69172;52.352;5.006;2023-08-21T00:18:55;102357.56;;;18.07;78.10
79703;BME280;69172;52.352;5.006;2023-08-21T00:21:20;102356.28;;;17.99;78.33
79703;BME280;69172;52.352;5.006;2023-08-21T00:23:46;102359.69;;;17.98;78.05
79703;BME280;69172;52.352;5.006;2023-08-21T00:26:12;102355.38;;;17.98;77.57
79703;BME280;69172;52.352;5.006;2023-08-21T00:28:38;102349.66;;;18.05;77.36
79703;BME280;69172;52.352;5.006;2023-08-21T00:31:03;102350.66;;;18.07;77.31
79703;BME280;69172;52.352;5.006;2023-08-21T00:33:33;102359.03;;;18.02;77.79
79703;BME280;69172;52.352;5.006;2023-08-21T00:35:58;102352.56;;;17.94;78.38
79703;BME280;69172;52.352;5.006;2023-08-21T00:38:24;102363.63;;;17.90;79.27
79703;BME280;69172;52.352;5.006;2023-08-21T00:40:51;102356.63;;;17.89;79.58
79703;BME280;69172;52.352;5.006;2023-08-21T00:43:16;102353.06;;;17.87;79.77
79703;BME280;69172;52.352;5.006;2023-08-21T00:45:44;102351.25;;;17.85;80.24
79703;BME280;69172;52.352;5.006;2023-08-21T00:48:11;102349.41;;;17.83;80.12
79703;BME280;69172;52.352;5.006;2023-08-21T00:50:37;102353.84;;;17.85;80.24
79703;BME280;69172;52.352;5.006;2023-08-21T00:53:03;102353.84;;;17.85;80.88
79703;BME280;69172;52.352;5.006;2023-08-21T00:55:30;102349.50;;;17.84;81.09
79703;BME280;69172;52.352;5.006;2023-08-21T00:57:56;102359.22;;;17.89;81.13
79703;BME280;69172;52.352;5.006;2023-08-21T01:00:22;102353.84;;;17.85;81.33
79703;BME280;69172;52.352;5.006;2023-08-21T01:02:49;102353.06;;;17.87;81.89
79703;BME280;69172;52.352;5.006;2023-08-21T01:05:14;102360.53;;;17.80;82.22
79703;BME280;69172;52.352;5.006;2023-08-21T01:10:38;102355.75;;;17.72;82.44
79703;BME280;69172;52.352;5.006;2023-08-21T01:13:44;102354.81;;;17.70;82.79
79703;BME280;69172;52.352;5.006;2023-08-21T01:16:13;102358.97;;;17.66;83.75
79703;BME280;69172;52.352;5.006;2023-08-21T01:18:39;102359.78;;;17.65;84.22
79703;BME280;69172;52.352;5.006;2023-08-21T01:21:06;102356.81;;;17.58;83.99
79703;BME280;69172;52.352;5.006;2023-08-21T01:23:35;102359.56;;;17.61;83.82
79703;BME280;69172;52.352;5.006;2023-08-21T01:26:01;102355.31;;;17.63;84.04
79703;BME280;69172;52.352;5.006;2023-08-21T01:28:27;102365.00;;;17.65;85.59
79703;BME280;69172;52.352;5.006;2023-08-21T01:31:00;102362.38;;;17.65;85.61
79703;BME280;69172;52.352;5.006;2023-08-21T01:33:30;102370.94;;;17.63;86.24
79703;BME280;69172;52.352;5.006;2023-08-21T01:35:58;102369.88;;;17.59;86.35
79703;BME280;69172;52.352;5.006;2023-08-21T01:38:31;102368.75;;;17.54;86.19
79703;BME280;69172;52.352;5.006;2023-08-21T01:40:57;102374.84;;;17.55;86.30
79703;BME280;69172;52.352;5.006;2023-08-21T01:43:23;102366.16;;;17.54;86.63
79703;BME280;69172;52.352;5.006;2023-08-21T01:45:49;102361.25;;;17.60;85.57
79703;BME280;69172;52.352;5.006;2023-08-21T01:48:14;102364.03;;;17.63;85.27
79703;BME280;69172;52.352;5.006;2023-08-21T01:50:40;102355.38;;;17.64;85.02
79703;BME280;69172;52.352;5.006;2023-08-21T01:53:05;102352.56;;;17.60;86.03
79703;BME280;69172;52.352;5.006;2023-08-21T01:55:30;102355.81;;;17.56;86.26
79703;BME280;69172;52.352;5.006;2023-08-21T01:57:56;102352.63;;;17.61;85.73
79703;BME280;69172;52.352;5.006;2023-08-21T02:00:21;102346.22;;;17.55;85.59
79703;BME280;69172;52.352;5.006;2023-08-21T02:02:47;102362.75;;;17.55;86.16
79703;BME280;69172;52.352;5.006;2023-08-21T02:05:12;102366.84;;;17.52;85.88
79703;BME280;69172;52.352;5.006;2023-08-21T02:07:38;102363.13;;;17.47;85.33
79703;BME280;69172;52.352;5.006;2023-08-21T02:10:03;102367.41;;;17.46;84.79
79703;BME280;69172;52.352;5.006;2023-08-21T02:12:29;102370.03;;;17.46;84.57
79703;BME280;69172;52.352;5.006;2023-08-21T02:14:54;102370.97;;;17.48;84.80
79703;BME280;69172;52.352;5.006;2023-08-21T02:17:20;102370.03;;;17.46;84.79
79703;BME280;69172;52.352;5.006;2023-08-21T02:19:45;102370.09;;;17.48;85.03
79703;BME280;69172;52.352;5.006;2023-08-21T02:22:10;102377.09;;;17.49;84.48
79703;BME280;69172;52.352;5.006;2023-08-21T02:24:36;102371.34;;;17.54;84.22
79703;BME280;69172;52.352;5.006;2023-08-21T02:27:01;102374.00;;;17.56;84.26
79703;BME280;69172;52.352;5.006;2023-08-21T02:29:28;102375.00;;;17.58;84.68
79703;BME280;69172;52.352;5.006;2023-08-21T02:31:53;102368.16;;;17.60;84.47
79703;BME280;69172;52.352;5.006;2023-08-21T02:34:19;102372.56;;;17.61;84.59
79703;BME280;69172;52.352;5.006;2023-08-21T02:36:44;102360.25;;;17.58;84.35
79703;BME280;69172;52.352;5.006;2023-08-21T02:39:09;102374.28;;;17.60;83.65
79703;BME280;69172;52.352;5.006;2023-08-21T02:41:35;102368.75;;;17.54;83.52
79703;BME280;69172;52.352;5.006;2023-08-21T02:44:01;102374.66;;;17.52;83.50
79703;BME280;69172;52.352;5.006;2023-08-21T02:46:27;102366.53;;;17.46;83.56
79703;BME280;69172;52.352;5.006;2023-08-21T02:48:53;102368.50;;;17.50;83.66
79703;BME280;69172;52.352;5.006;2023-08-21T02:51:18;102380.66;;;17.51;83.80
79703;BME280;69172;52.352;5.006;2023-08-21T02:53:45;102374.25;;;17.44;83.91
79703;BME280;69172;52.352;5.006;2023-08-21T02:56:10;102371.50;;;17.41;84.61
79703;BME280;69172;52.352;5.006;2023-08-21T02:58:36;102360.84;;;17.37;85.03
79703;BME280;69172;52.352;5.006;2023-08-21T03:01:01;102370.66;;;17.42;84.62
79703;BME280;69172;52.352;5.006;2023-08-21T03:03:27;102364.59;;;17.42;84.29
79703;BME280;69172;52.352;5.006;2023-08-21T03:05:52;102358.50;;;17.41;84.06
79703;BME280;69172;52.352;5.006;2023-08-21T03:08:17;102358.31;;;17.38;83.85
79703;BME280;69172;52.352;5.006;2023-08-21T03:10:43;102361.91;;;17.40;83.87
79703;BME280;69172;52.352;5.006;2023-08-21T03:13:08;102356.63;;;17.39;84.19
79703;BME280;69172;52.352;5.006;2023-08-21T03:15:34;102367.81;;;17.38;84.95
79703;BME280;69172;52.352;5.006;2023-08-21T03:18:00;102360.59;;;17.32;84.90
79703;BME280;69172;52.352;5.006;2023-08-21T03:20:25;102358.97;;;17.34;84.83
79703;BME280;69172;52.352;5.006;2023-08-21T03:22:51;102354.59;;;17.33;84.67
79703;BME280;69172;52.352;5.006;2023-08-21T03:25:16;102359.13;;;17.37;84.20
79703;BME280;69172;52.352;5.006;2023-08-21T03:27:42;102363.53;;;17.38;84.50
79703;BME280;69172;52.352;5.006;2023-08-21T03:30:09;102361.81;;;17.39;85.89
79703;BME280;69172;52.352;5.006;2023-08-21T03:32:35;102360.13;;;17.39;87.86
79703;BME280;69172;52.352;5.006;2023-08-21T03:35:01;102358.16;;;17.35;89.00
79703;BME280;69172;52.352;5.006;2023-08-21T03:37:26;102365.75;;;17.31;88.80
79703;BME280;69172;52.352;5.006;2023-08-21T03:39:51;102355.75;;;17.22;89.44
79703;BME280;69172;52.352;5.006;2023-08-21T03:42:17;102345.16;;;17.19;89.73
79703;BME280;69172;52.352;5.006;2023-08-21T03:44:42;102345.97;;;17.18;89.86
79703;BME280;69172;52.352;5.006;2023-08-21T03:47:07;102349.47;;;17.18;89.52
79703;BME280;69172;52.352;5.006;2023-08-21T03:49:33;102348.34;;;17.13;89.97
79703;BME280;69172;52.352;5.006;2023-08-21T03:51:58;102346.31;;;17.08;90.73
79703;BME280;69172;52.352;5.006;2023-08-21T03:54:24;102354.09;;;17.08;90.70
79703;BME280;69172;52.352;5.006;2023-08-21T03:56:49;102352.41;;;17.08;90.57
79703;BME280;69172;52.352;5.006;2023-08-21T03:59:14;102344.50;;;17.07;90.22
79703;BME280;69172;52.352;5.006;2023-08-21T04:01:40;102350.72;;;17.09;90.05
79703;BME280;69172;52.352;5.006;2023-08-21T04:04:05;102355.75;;;17.06;89.60
79703;BME280;69172;52.352;5.006;2023-08-21T04:06:31;102354.78;;;17.04;89.66
79703;BME280;69172;52.352;5.006;2023-08-21T04:08:56;102358.34;;;17.06;89.82
79703;BME280;69172;52.352;5.006;2023-08-21T04:11:21;102353.13;;;17.06;89.82
79703;BME280;69172;52.352;5.006;2023-08-21T04:13:47;102355.25;;;17.13;91.50
79703;BME280;69172;52.352;5.006;2023-08-21T04:16:12;102363.22;;;17.16;92.60
79703;BME280;69172;52.352;5.006;2023-08-21T04:18:37;102355.41;;;17.16;93.38
79703;BME280;69172;52.352;5.006;2023-08-21T04:21:04;102359.47;;;17.11;93.99
79703;BME280;69172;52.352;5.006;2023-08-21T04:23:29;102352.41;;;17.08;94.23
79703;BME280;69172;52.352;5.006;2023-08-21T04:26:00;102347.09;;;17.07;94.40
79703;BME280;69172;52.352;5.006;2023-08-21T04:28:26;102350.28;;;17.01;93.81
79703;BME280;69172;52.352;5.006;2023-08-21T04:30:53;102354.25;;;16.95;93.73
79703;BME280;69172;52.352;5.006;2023-08-21T04:33:18;102364.66;;;16.95;93.55
79703;BME280;69172;52.352;5.006;2023-08-21T04:35:43;102362.78;;;16.92;92.36
79703;BME280;69172;52.352;5.006;2023-08-21T04:38:09;102359.06;;;16.87;91.77
79703;BME280;69172;52.352;5.006;2023-08-21T04:40:34;102371.31;;;16.90;91.46
79703;BME280;69172;52.352;5.006;2023-08-21T04:42:59;102364.31;;;16.89;91.36
79703;BME280;69172;52.352;5.006;2023-08-21T04:45:25;102364.31;;;16.89;91.07
79703;BME280;69172;52.352;5.006;2023-08-21T04:47:50;102368.72;;;16.90;90.83
79703;BME280;69172;52.352;5.006;2023-08-21T04:50:16;102368.00;;;16.92;90.77
79703;BME280;69172;52.352;5.006;2023-08-21T04:52:41;102362.69;;;16.91;90.81
79703;BME280;69172;52.352;5.006;2023-08-21T04:55:07;102361.97;;;16.93;90.56
79703;BME280;69172;52.352;5.006;2023-08-21T04:57:32;102367.16;;;16.93;90.76
79703;BME280;69172;52.352;5.006;2023-08-21T04:59:58;102368.16;;;16.95;90.31
79703;BME280;69172;52.352;5.006;2023-08-21T05:02:23;102373.59;;;17.00;89.26
79703;BME280;69172;52.352;5.006;2023-08-21T05:04:48;102363.38;;;17.03;88.27
79703;BME280;69172;52.352;5.006;2023-08-21T05:07:14;102374.72;;;17.05;88.05
79703;BME280;69172;52.352;5.006;2023-08-21T05:09:40;102379.31;;;17.09;87.98
79703;BME280;69172;52.352;5.006;2023-08-21T05:12:07;102373.38;;;17.11;87.93
79703;BME280;69172;52.352;5.006;2023-08-21T05:14:33;102373.59;;;17.16;87.70
79703;BME280;69172;52.352;5.006;2023-08-21T05:16:58;102366.78;;;17.18;87.84
79703;BME280;69172;52.352;5.006;2023-08-21T05:19:24;102376.53;;;17.22;87.84
79703;BME280;69172;52.352;5.006;2023-08-21T05:21:49;102382.81;;;17.25;88.20
79703;BME280;69172;52.352;5.006;2023-08-21T05:24:15;102376.94;;;17.30;88.33
79703;BME280;69172;52.352;5.006;2023-08-21T05:26:41;102378.81;;;17.32;88.66
79703;BME280;69172;52.352;5.006;2023-08-21T05:29:07;102377.91;;;17.32;88.63
79703;BME280;69172;52.352;5.006;2023-08-21T05:31:33;102380.19;;;17.42;88.53
79703;BME280;69172;52.352;5.006;2023-08-21T05:33:58;102379.38;;;17.43;88.62
79703;BME280;69172;52.352;5.006;2023-08-21T05:36:23;102372.41;;;17.42;88.71
79703;BME280;69172;52.352;5.006;2023-08-21T05:38:49;102379.63;;;17.47;89.15
79703;BME280;69172;52.352;5.006;2023-08-21T05:41:16;102389.28;;;17.50;89.68
79703;BME280;69172;52.352;5.006;2023-08-21T05:43:42;102384.97;;;17.50;89.75
79703;BME280;69172;52.352;5.006;2023-08-21T05:46:07;102385.84;;;17.51;89.82
79703;BME280;69172;52.352;5.006;2023-08-21T05:48:33;102385.25;;;17.55;90.22
79703;BME280;69172;52.352;5.006;2023-08-21T05:50:59;102388.09;;;17.59;90.46
79703;BME280;69172;52.352;5.006;2023-08-21T05:53:25;102379.38;;;17.59;90.50
79703;BME280;69172;52.352;5.006;2023-08-21T05:55:50;102384.75;;;17.62;90.78
79703;BME280;69172;52.352;5.006;2023-08-21T05:58:16;102388.47;;;17.67;91.12
79703;BME280;69172;52.352;5.006;2023-08-21T06:00:41;102386.88;;;17.69;91.06
79703;BME280;69172;52.352;5.006;2023-08-21T06:03:07;102387.72;;;17.69;90.66
79703;BME280;69172;52.352;5.006;2023-08-21T06:05:32;102389.69;;;17.73;89.48
79703;BME280;69172;52.352;5.006;2023-08-21T06:07:58;102393.25;;;17.75;89.14
79703;BME280;69172;52.352;5.006;2023-08-21T06:10:23;102398.56;;;17.77;89.06
79703;BME280;69172;52.352;5.006;2023-08-21T06:12:49;102402.44;;;17.85;88.83
79703;BME280;69172;52.352;5.006;2023-08-21T06:15:15;102393.16;;;17.90;88.78
79703;BME280;69172;52.352;5.006;2023-08-21T06:17:41;102396.81;;;17.94;88.89
79703;BME280;69172;52.352;5.006;2023-08-21T06:20:07;102388.28;;;17.96;88.44
79703;BME280;69172;52.352;5.006;2023-08-21T06:22:36;102395.72;;;18.06;87.67
79703;BME280;69172;52.352;5.006;2023-08-21T06:25:02;102399.38;;;18.10;87.62
79703;BME280;69172;52.352;5.006;2023-08-21T06:27:27;102402.09;;;18.13;87.60
79703;BME280;69172;52.352;5.006;2023-08-21T06:29:53;102401.13;;;18.11;87.08
79703;BME280;69172;52.352;5.006;2023-08-21T06:32:18;102399.66;;;18.16;86.18
79703;BME280;69172;52.352;5.006;2023-08-21T06:34:43;102401.59;;;18.20;85.88
79703;BME280;69172;52.352;5.006;2023-08-21T06:37:09;102408.84;;;18.25;85.15
79703;BME280;69172;52.352;5.006;2023-08-21T06:39:34;102402.88;;;18.28;85.07
79703;BME280;69172;52.352;5.006;2023-08-21T06:42:00;102395.44;;;18.35;84.57
79703;BME280;69172;52.352;5.006;2023-08-21T06:44:25;102393.78;;;18.37;84.94
79703;BME280;69172;52.352;5.006;2023-08-21T06:46:51;102405.34;;;18.42;83.93
79703;BME280;69172;52.352;5.006;2023-08-21T06:49:16;102400.59;;;18.52;83.40
79703;BME280;69172;52.352;5.006;2023-08-21T06:51:42;102399.34;;;18.61;83.28
79703;BME280;69172;52.352;5.006;2023-08-21T06:54:07;102395.91;;;18.62;83.06
79703;BME280;69172;52.352;5.006;2023-08-21T06:56:32;102407.44;;;18.67;83.14
79703;BME280;69172;52.352;5.006;2023-08-21T06:58:58;102398.94;;;18.71;83.16
79703;BME280;69172;52.352;5.006;2023-08-21T07:01:23;102397.41;;;18.75;83.29
79703;BME280;69172;52.352;5.006;2023-08-21T07:03:49;102401.16;;;18.81;83.04
79703;BME280;69172;52.352;5.006;2023-08-21T07:06:14;102406.53;;;18.84;83.18
79703;BME280;69172;52.352;5.006;2023-08-21T07:08:39;102397.28;;;18.91;83.44
79703;BME280;69172;52.352;5.006;2023-08-21T07:11:06;102398.31;;;18.94;82.83
79703;BME280;69172;52.352;5.006;2023-08-21T07:13:33;102396.75;;;18.98;82.49
79703;BME280;69172;52.352;5.006;2023-08-21T07:15:59;102399.69;;;19.06;81.92
79703;BME280;69172;52.352;5.006;2023-08-21T07:18:31;102391.19;;;19.10;81.92
79703;BME280;69172;52.352;5.006;2023-08-21T07:20:57;102393.25;;;19.17;81.25
79703;BME280;69172;52.352;5.006;2023-08-21T07:23:22;102392.63;;;19.22;79.92
79703;BME280;69172;52.352;5.006;2023-08-21T07:25:47;102409.81;;;19.36;79.68
79703;BME280;69172;52.352;5.006;2023-08-21T07:28:13;102402.31;;;19.42;79.15
79703;BME280;69172;52.352;5.006;2023-08-21T07:30:39;102412.41;;;19.54;79.16
79703;BME280;69172;52.352;5.006;2023-08-21T07:33:04;102406.41;;;19.56;77.99
79703;BME280;69172;52.352;5.006;2023-08-21T07:35:30;102396.09;;;19.59;77.08
79703;BME280;69172;52.352;5.006;2023-08-21T07:37:56;102405.09;;;19.66;76.40
79703;BME280;69172;52.352;5.006;2023-08-21T07:40:21;102405.56;;;19.77;76.68
79703;BME280;69172;52.352;5.006;2023-08-21T07:42:47;102409.25;;;19.82;75.61
79703;BME280;69172;52.352;5.006;2023-08-21T07:45:12;102407.00;;;19.89;76.21
79703;BME280;69172;52.352;5.006;2023-08-21T07:47:38;102406.22;;;19.92;75.09
79703;BME280;69172;52.352;5.006;2023-08-21T07:50:05;102407.22;;;19.95;74.30
79703;BME280;69172;52.352;5.006;2023-08-21T07:52:31;102412.81;;;20.03;74.67
79703;BME280;69172;52.352;5.006;2023-08-21T07:54:57;102420.19;;;20.13;74.83
79703;BME280;69172;52.352;5.006;2023-08-21T07:57:24;102412.41;;;20.14;75.04
79703;BME280;69172;52.352;5.006;2023-08-21T07:59:49;102426.03;;;20.27;74.15
79703;BME280;69172;52.352;5.006;2023-08-21T08:02:15;102414.81;;;20.29;73.08
79703;BME280;69172;52.352;5.006;2023-08-21T08:04:40;102413.31;;;20.36;73.79
79703;BME280;69172;52.352;5.006;2023-08-21T08:07:08;102419.69;;;20.42;73.71
79703;BME280;69172;52.352;5.006;2023-08-21T08:09:34;102415.53;;;20.47;73.37
79703;BME280;69172;52.352;5.006;2023-08-21T08:12:01;102425.47;;;20.56;72.17
79703;BME280;69172;52.352;5.006;2023-08-21T08:14:26;102414.38;;;20.61;72.21
79703;BME280;69172;52.352;5.006;2023-08-21T08:16:51;102415.19;;;20.60;71.33
79703;BME280;69172;52.352;5.006;2023-08-21T08:19:18;102415.56;;;20.69;71.29
79703;BME280;69172;52.352;5.006;2023-08-21T08:21:43;102420.09;;;20.73;71.08
79703;BME280;69172;52.352;5.006;2023-08-21T08:24:09;102418.47;;;20.77;71.10
79703;BME280;69172;52.352;5.006;2023-08-21T08:26:35;102409.97;;;20.83;71.28
79703;BME280;69172;52.352;5.006;2023-08-21T08:29:01;102408.38;;;20.86;71.24
79703;BME280;69172;52.352;5.006;2023-08-21T08:31:26;102407.63;;;20.89;71.74
79703;BME280;69172;52.352;5.006;2023-08-21T08:33:54;102410.09;;;20.86;71.83
79703;BME280;69172;52.352;5.006;2023-08-21T08:36:19;102415.75;;;20.96;71.60
79703;BME280;69172;52.352;5.006;2023-08-21T08:38:45;102414.28;;;21.03;72.06
79703;BME280;69172;52.352;5.006;2023-08-21T08:41:24;102411.06;;;21.10;71.21
79703;BME280;69172;52.352;5.006;2023-08-21T08:43:50;102413.03;;;21.15;71.12
79703;BME280;69172;52.352;5.006;2023-08-21T08:46:16;102415.06;;;21.22;71.17
79703;BME280;69172;52.352;5.006;2023-08-21T08:48:43;102404.69;;;21.25;70.75
79703;BME280;69172;52.352;5.006;2023-08-21T08:51:09;102406.72;;;21.32;69.78
79703;BME280;69172;52.352;5.006;2023-08-21T08:53:34;102407.88;;;21.41;70.06
79703;BME280;69172;52.352;5.006;2023-08-21T08:56:01;102409.84;;;21.46;69.28
79703;BME280;69172;52.352;5.006;2023-08-21T08:58:26;102409.94;;;21.49;68.41
79703;BME280;69172;52.352;5.006;2023-08-21T09:00:52;102409.19;;;21.53;68.33
79703;BME280;69172;52.352;5.006;2023-08-21T09:03:17;102412.84;;;21.57;68.59
79703;BME280;69172;52.352;5.006;2023-08-21T09:05:42;102406.97;;;21.64;68.72
79703;BME280;69172;52.352;5.006;2023-08-21T09:10:34;102415.13;;;21.71;66.86
79703;BME280;69172;52.352;5.006;2023-08-21T09:13:01;102411.91;;;21.80;67.39
79703;BME280;69172;52.352;5.006;2023-08-21T09:15:30;102410.38;;;21.85;67.25
79703;BME280;69172;52.352;5.006;2023-08-21T09:17:55;102406.38;;;21.96;67.70
79703;BME280;69172;52.352;5.006;2023-08-21T09:20:21;102410.16;;;22.04;67.84
79703;BME280;69172;52.352;5.006;2023-08-21T09:22:56;102412.16;;;22.11;67.59
79703;BME280;69172;52.352;5.006;2023-08-21T09:25:22;102409.59;;;22.13;66.99
79703;BME280;69172;52.352;5.006;2023-08-21T09:27:51;102410.69;;;22.19;66.53
79703;BME280;69172;52.352;5.006;2023-08-21T09:30:17;102402.19;;;22.26;66.92
79703;BME280;69172;52.352;5.006;2023-08-21T09:33:03;102391.22;;;22.38;66.73
79703;BME280;69172;52.352;5.006;2023-08-21T09:35:32;102394.56;;;22.61;65.68
79703;BME280;69172;52.352;5.006;2023-08-21T09:37:58;102386.91;;;22.67;65.04
79703;BME280;69172;52.352;5.006;2023-08-21T09:40:24;102391.41;;;22.71;63.98
79703;BME280;69172;52.352;5.006;2023-08-21T09:42:56;102394.16;;;22.75;64.24
79703;BME280;69172;52.352;5.006;2023-08-21T09:45:25;102400.00;;;22.67;65.32
79703;BME280;69172;52.352;5.006;2023-08-21T09:47:54;102383.41;;;22.66;64.15
79703;BME280;69172;52.352;5.006;2023-08-21T09:50:20;102391.97;;;22.89;64.08
79703;BME280;69172;52.352;5.006;2023-08-21T09:52:46;102386.63;;;22.86;63.96
79703;BME280;69172;52.352;5.006;2023-08-21T09:55:15;102382.38;;;23.19;63.19
79703;BME280;69172;52.352;5.006;2023-08-21T09:57:41;102383.91;;;23.41;61.84
79703;BME280;69172;52.352;5.006;2023-08-21T10:00:08;102380.03;;;23.28;62.62
79703;BME280;69172;52.352;5.006;2023-08-21T10:02:43;102371.28;;;23.59;62.16
79703;BME280;69172;52.352;5.006;2023-08-21T10:05:13;102378.84;;;23.48;61.08
79703;BME280;69172;52.352;5.006;2023-08-21T10:07:40;102378.00;;;23.48;60.85
79703;BME280;69172;52.352;5.006;2023-08-21T10:10:08;102372.59;;;23.43;60.92
79703;BME280;69172;52.352;5.006;2023-08-21T10:12:33;102383.88;;;23.39;59.52
79703;BME280;69172;52.352;5.006;2023-08-21T10:14:59;102384.72;;;23.38;59.28
79703;BME280;69172;52.352;5.006;2023-08-21T10:17:24;102375.66;;;23.29;58.27
79703;BME280;69172;52.352;5.006;2023-08-21T10:19:53;102378.84;;;23.48;58.90
79703;BME280;69172;52.352;5.006;2023-08-21T10:22:45;102375.28;;;23.78;58.18
79703;BME280;69172;52.352;5.006;2023-08-21T10:25:15;102373.13;;;23.96;58.01
79703;BME280;69172;52.352;5.006;2023-08-21T10:28:01;102381.56;;;24.15;54.70
79703;BME280;69172;52.352;5.006;2023-08-21T10:30:29;102382.81;;;23.97;54.85
79703;BME280;69172;52.352;5.006;2023-08-21T10:32:57;102382.31;;;24.11;55.55
79703;BME280;69172;52.352;5.006;2023-08-21T10:35:25;102386.00;;;24.18;55.53
79703;BME280;69172;52.352;5.006;2023-08-21T10:38:12;102378.94;;;24.17;55.75
79703;BME280;69172;52.352;5.006;2023-08-21T10:40:40;102374.88;;;24.67;53.91
79703;BME280;69172;52.352;5.006;2023-08-21T10:43:41;102379.16;;;25.01;51.84
79703;BME280;69172;52.352;5.006;2023-08-21T10:46:11;102360.44;;;25.29;51.22
79703;BME280;69172;52.352;5.006;2023-08-21T10:48:38;102360.50;;;25.32;49.97
79703;BME280;69172;52.352;5.006;2023-08-21T10:51:07;102367.38;;;25.24;52.27
79703;BME280;69172;52.352;5.006;2023-08-21T10:53:34;102373.66;;;24.89;52.69
79703;BME280;69172;52.352;5.006;2023-08-21T10:56:03;102370.75;;;24.78;51.50
79703;BME280;69172;52.352;5.006;2023-08-21T10:58:41;102381.56;;;24.51;52.56
79703;BME280;69172;52.352;5.006;2023-08-21T11:01:07;102384.63;;;24.34;53.43
79703;BME280;69172;52.352;5.006;2023-08-21T11:03:32;102384.03;;;24.45;52.68
79703;BME280;69172;52.352;5.006;2023-08-21T11:06:06;102370.28;;;24.57;52.09
79703;BME280;69172;52.352;5.006;2023-08-21T11:08:33;102362.81;;;24.76;51.18
79703;BME280;69172;52.352;5.006;2023-08-21T11:10:59;102366.09;;;24.65;48.83
79703;BME280;69172;52.352;5.006;2023-08-21T11:13:26;102365.63;;;24.82;48.91
79703;BME280;69172;52.352;5.006;2023-08-21T11:16:01;102369.69;;;25.09;49.47
79703;BME280;69172;52.352;5.006;2023-08-21T11:18:37;102366.75;;;25.38;49.05
79703;BME280;69172;52.352;5.006;2023-08-21T11:21:07;102366.34;;;25.61;47.49
79703;BME280;69172;52.352;5.006;2023-08-21T11:23:34;102361.50;;;25.82;46.94
79703;BME280;69172;52.352;5.006;2023-08-21T11:26:02;102356.28;;;25.86;47.42
79703;BME280;69172;52.352;5.006;2023-08-21T11:28:29;102360.72;;;25.89;46.84
79703;BME280;69172;52.352;5.006;2023-08-21T11:30:56;102371.75;;;25.67;47.26
79703;BME280;69172;52.352;5.006;2023-08-21T11:33:22;102363.81;;;25.22;48.09
79703;BME280;69172;52.352;5.006;2023-08-21T11:35:48;102368.84;;;25.11;48.25
79703;BME280;69172;52.352;5.006;2023-08-21T11:38:21;102362.75;;;25.12;48.98
79703;BME280;69172;52.352;5.006;2023-08-21T11:40:57;102350.19;;;24.99;48.83
79703;BME280;69172;52.352;5.006;2023-08-21T11:43:44;102359.22;;;25.12;48.53
79703;BME280;69172;52.352;5.006;2023-08-21T11:46:10;102363.13;;;24.89;47.40
79703;BME280;69172;52.352;5.006;2023-08-21T11:48:40;102360.78;;;25.04;47.64
79703;BME280;69172;52.352;5.006;2023-08-21T11:51:06;102361.34;;;25.31;46.55
79703;BME280;69172;52.352;5.006;2023-08-21T11:53:37;102368.50;;;25.36;47.64
79703;BME280;69172;52.352;5.006;2023-08-21T11:56:03;102365.25;;;25.48;47.07
79703;BME280;69172;52.352;5.006;2023-08-21T11:58:37;102368.63;;;25.42;43.11
79703;BME280;69172;52.352;5.006;2023-08-21T12:01:04;102364.66;;;25.64;43.30
79703;BME280;69172;52.352;5.006;2023-08-21T12:03:29;102377.13;;;25.73;43.41
79703;BME280;69172;52.352;5.006;2023-08-21T12:05:56;102371.63;;;25.61;43.21
79703;BME280;69172;52.352;5.006;2023-08-21T12:08:22;102363.19;;;25.80;45.39
79703;BME280;69172;52.352;5.006;2023-08-21T12:10:50;102372.84;;;25.79;46.14
79703;BME280;69172;52.352;5.006;2023-08-21T12:13:17;102365.19;;;25.47;46.24
79703;BME280;69172;52.352;5.006;2023-08-21T12:15:43;102367.59;;;25.36;46.78
79703;BME280;69172;52.352;5.006;2023-08-21T12:18:08;102362.19;;;25.28;46.13
79703;BME280;69172;52.352;5.006;2023-08-21T12:20:34;102366.13;;;25.49;45.67
79703;BME280;69172;52.352;5.006;2023-08-21T12:22:59;102352.34;;;25.63;45.19
79703;BME280;69172;52.352;5.006;2023-08-21T12:25:24;102342.44;;;25.98;45.74
79703;BME280;69172;52.352;5.006;2023-08-21T12:27:50;102350.72;;;25.70;45.03
79703;BME280;69172;52.352;5.006;2023-08-21T12:30:15;102347.53;;;25.41;45.02
79703;BME280;69172;52.352;5.006;2023-08-21T12:32:42;102366.28;;;25.56;44.49
79703;BME280;69172;52.352;5.006;2023-08-21T12:35:08;102357.22;;;25.43;44.36
79703;BME280;69172;52.352;5.006;2023-08-21T12:37:37;102363.34;;;25.42;44.04
79703;BME280;69172;52.352;5.006;2023-08-21T12:40:02;102356.19;;;25.35;44.58
79703;BME280;69172;52.352;5.006;2023-08-21T12:42:28;102358.31;;;25.53;44.89
79703;BME280;69172;52.352;5.006;2023-08-21T12:44:53;102359.03;;;25.46;44.99
79703;BME280;69172;52.352;5.006;2023-08-21T12:47:18;102365.19;;;25.47;44.08
79703;BME280;69172;52.352;5.006;2023-08-21T12:49:44;102361.28;;;25.28;42.56
79703;BME280;69172;52.352;5.006;2023-08-21T12:52:09;102365.72;;;25.29;43.55
79703;BME280;69172;52.352;5.006;2023-08-21T12:54:36;102355.44;;;25.41;43.54